createdAt,value
2017-11-19T00:00:27.266Z,100143
2017-11-19T00:01:27.874Z,100149
2017-11-19T00:02:27.267Z,100155
2017-11-19T00:03:27.958Z,100164
2017-11-19T00:04:27.352Z,100168
2017-11-19T00:05:27.888Z,100164
2017-11-19T00:06:27.996Z,100172
2017-11-19T00:07:28.049Z,100162
2017-11-19T00:08:27.714Z,100163
2017-11-19T00:09:27.625Z,100160
2017-11-19T00:10:28.275Z,100161
2017-11-19T00:11:27.772Z,100162
2017-11-19T00:12:28.275Z,100160
2017-11-19T00:13:28.368Z,100162
2017-11-19T00:14:28.536Z,100160
2017-11-19T00:15:28.437Z,100156
2017-11-19T00:16:28.637Z,100149
2017-11-19T00:17:28.011Z,100148
2017-11-19T00:18:28.745Z,100154
2017-11-19T00:19:28.161Z,100140
2017-11-19T00:20:28.287Z,100143
2017-11-19T00:21:28.205Z,100146
2017-11-19T00:22:28.385Z,100148
2017-11-19T00:23:29.046Z,100153
2017-11-19T00:24:28.549Z,100154
2017-11-19T00:25:29.860Z,100155
2017-11-19T00:26:29.067Z,100155
2017-11-19T00:27:28.604Z,100154
2017-11-19T00:28:29.322Z,100150
2017-11-19T00:29:28.745Z,100147
2017-11-19T00:30:28.748Z,100147
2017-11-19T00:31:28.794Z,100145
2017-11-19T00:32:29.336Z,100144
2017-11-19T00:33:28.947Z,100146
2017-11-19T00:34:29.454Z,100152
2017-11-19T00:35:29.665Z,100147
2017-11-19T00:36:29.109Z,100146
2017-11-19T00:37:29.234Z,100140
2017-11-19T00:38:29.732Z,100146
2017-11-19T00:39:29.222Z,100149
2017-11-19T00:40:29.773Z,100142
2017-11-19T00:41:29.791Z,100143
2017-11-19T00:42:29.962Z,100141
2017-11-19T00:43:29.981Z,100141
2017-11-19T00:44:30.030Z,100140
2017-11-19T00:45:29.528Z,100140
2017-11-19T00:46:29.440Z,100135
2017-11-19T00:47:29.537Z,100131
2017-11-19T00:48:29.741Z,100132
2017-11-19T00:49:29.647Z,100130
2017-11-19T00:50:30.325Z,100128
2017-11-19T00:51:29.904Z,100130
2017-11-19T00:52:30.528Z,100133
2017-11-19T00:53:30.470Z,100132
2017-11-19T00:54:29.981Z,100139
2017-11-19T00:55:30.543Z,100138
2017-11-19T00:56:30.576Z,100136
2017-11-19T00:57:30.208Z,100138
2017-11-19T00:58:30.263Z,100140
2017-11-19T00:59:30.334Z,100134
2017-11-19T01:00:30.927Z,100136
2017-11-19T01:01:30.410Z,100134
2017-11-19T01:02:30.911Z,100126
2017-11-19T01:03:30.966Z,100132
2017-11-19T01:04:30.583Z,100134
2017-11-19T01:05:30.652Z,100137
2017-11-19T01:06:31.147Z,100138
2017-11-19T01:07:30.640Z,100140
2017-11-19T01:08:31.375Z,100142
2017-11-19T01:09:31.325Z,100144
2017-11-19T01:10:30.971Z,100145
2017-11-19T01:11:31.480Z,100137
2017-11-19T01:12:31.681Z,100135
2017-11-19T01:13:31.125Z,100133
2017-11-19T01:14:31.821Z,100130
2017-11-19T01:15:31.212Z,100129
2017-11-19T01:16:31.850Z,100128
2017-11-19T01:17:31.892Z,100134
2017-11-19T01:18:31.271Z,100128
2017-11-19T01:19:31.903Z,100129
2017-11-19T01:20:31.325Z,100133
2017-11-19T01:21:31.436Z,100129
2017-11-19T01:22:32.062Z,100130
2017-11-19T01:23:31.554Z,100134
2017-11-19T01:24:32.247Z,100132
2017-11-19T01:25:31.666Z,100129
2017-11-19T01:26:32.197Z,100130
2017-11-19T01:27:32.238Z,100131
2017-11-19T01:28:31.657Z,100132
2017-11-19T01:29:31.735Z,100126
2017-11-19T01:30:32.339Z,100124
2017-11-19T01:31:31.872Z,100124
2017-11-19T01:32:31.929Z,100126
2017-11-19T01:33:32.476Z,100130
2017-11-19T01:34:32.012Z,100132
2017-11-19T01:35:32.631Z,100128
2017-11-19T01:36:31.983Z,100130
2017-11-19T01:37:32.710Z,100123
2017-11-19T01:38:32.677Z,100127
2017-11-19T01:39:32.869Z,100129
2017-11-19T01:40:32.836Z,100134
2017-11-19T01:41:32.920Z,100138
2017-11-19T01:42:32.572Z,100129
2017-11-19T01:43:33.062Z,100143
2017-11-19T01:44:32.632Z,100138
2017-11-19T01:45:33.198Z,100134
2017-11-19T01:46:33.089Z,100138
2017-11-19T01:47:33.099Z,100137
2017-11-19T01:48:32.653Z,100132
2017-11-19T01:49:33.180Z,100129
2017-11-19T01:50:32.859Z,100134
2017-11-19T01:51:32.853Z,100133
2017-11-19T01:52:32.935Z,100128
2017-11-19T01:53:33.125Z,100129
2017-11-19T01:54:33.768Z,100133
2017-11-19T01:55:33.681Z,100128
2017-11-19T01:56:33.892Z,100133
2017-11-19T01:57:33.324Z,100135
2017-11-19T01:58:33.821Z,100133
2017-11-19T01:59:34.029Z,100135
2017-11-19T02:00:34.078Z,100128
2017-11-19T02:01:34.162Z,100122
2017-11-19T02:02:33.687Z,100127
2017-11-19T02:03:34.312Z,100126
2017-11-19T02:04:33.656Z,100125
2017-11-19T02:05:34.282Z,100124
2017-11-19T02:06:34.487Z,100124
2017-11-19T02:07:34.391Z,100124
2017-11-19T02:08:34.413Z,100129
2017-11-19T02:09:34.564Z,100130
2017-11-19T02:10:34.008Z,100123
2017-11-19T02:11:34.611Z,100127
2017-11-19T02:12:34.245Z,100126
2017-11-19T02:13:34.150Z,100123
2017-11-19T02:14:34.692Z,100118
2017-11-19T02:15:34.905Z,100122
2017-11-19T02:16:35.057Z,100120
2017-11-19T02:17:35.157Z,100119
2017-11-19T02:18:34.521Z,100123
2017-11-19T02:19:34.688Z,100120
2017-11-19T02:20:34.437Z,100122
2017-11-19T02:21:35.163Z,100113
2017-11-19T02:22:35.099Z,100123
2017-11-19T02:23:35.238Z,100127
2017-11-19T02:24:34.823Z,100123
2017-11-19T02:25:34.699Z,100125
2017-11-19T02:26:34.729Z,100119
2017-11-19T02:27:34.676Z,100125
2017-11-19T02:28:34.800Z,100126
2017-11-19T02:29:34.793Z,100119
2017-11-19T02:30:34.876Z,100121
2017-11-19T02:31:35.307Z,100118
2017-11-19T02:32:35.454Z,100119
2017-11-19T02:33:35.413Z,100120
2017-11-19T02:34:34.896Z,100121
2017-11-19T02:35:35.001Z,100123
2017-11-19T02:36:35.527Z,100121
2017-11-19T02:37:35.617Z,100129
2017-11-19T02:38:35.208Z,100126
2017-11-19T02:39:35.218Z,100126
2017-11-19T02:40:35.144Z,100126
2017-11-19T02:41:35.251Z,100123
2017-11-19T02:42:35.255Z,100127
2017-11-19T02:43:35.347Z,100126
2017-11-19T02:44:35.970Z,100129
2017-11-19T02:45:36.074Z,100133
2017-11-19T02:46:35.601Z,100137
2017-11-19T02:47:36.229Z,100131
2017-11-19T02:48:35.633Z,100137
2017-11-19T02:49:36.278Z,100138
2017-11-19T02:50:36.271Z,100141
2017-11-19T02:51:35.903Z,100143
2017-11-19T02:52:36.072Z,100147
2017-11-19T02:53:36.459Z,100145
2017-11-19T02:54:36.055Z,100142
2017-11-19T02:55:36.565Z,100146
2017-11-19T02:56:36.048Z,100139
2017-11-19T02:57:36.667Z,100143
2017-11-19T02:58:36.288Z,100142
2017-11-19T02:59:36.371Z,100146
2017-11-19T03:00:36.820Z,100140
2017-11-19T03:01:36.321Z,100146
2017-11-19T03:02:36.333Z,100148
2017-11-19T03:03:36.870Z,100144
2017-11-19T03:04:36.432Z,100147
2017-11-19T03:05:36.461Z,100149
2017-11-19T03:06:37.090Z,100147
2017-11-19T03:07:37.097Z,100148
2017-11-19T03:08:36.560Z,100152
2017-11-19T03:09:36.634Z,100148
2017-11-19T03:10:36.569Z,100152
2017-11-19T03:11:36.589Z,100152
2017-11-19T03:12:37.249Z,100153
2017-11-19T03:13:36.732Z,100157
2017-11-19T03:14:37.361Z,100156
2017-11-19T03:15:36.828Z,100157
2017-11-19T03:16:37.404Z,100152
2017-11-19T03:17:36.802Z,100154
2017-11-19T03:18:36.805Z,100153
2017-11-19T03:19:37.405Z,100151
2017-11-19T03:20:36.893Z,100149
2017-11-19T03:21:36.991Z,100148
2017-11-19T03:22:37.144Z,100149
2017-11-19T03:23:37.630Z,100145
2017-11-19T03:24:37.165Z,100148
2017-11-19T03:25:37.809Z,100145
2017-11-19T03:26:37.787Z,100151
2017-11-19T03:27:37.993Z,100149
2017-11-19T03:28:38.086Z,100148
2017-11-19T03:29:37.616Z,100150
2017-11-19T03:30:38.221Z,100151
2017-11-19T03:31:37.686Z,100146
2017-11-19T03:32:38.302Z,100148
2017-11-19T03:33:38.318Z,100143
2017-11-19T03:34:37.879Z,100141
2017-11-19T03:35:38.426Z,100145
2017-11-19T03:36:38.421Z,100143
2017-11-19T03:37:37.992Z,100140
2017-11-19T03:38:38.031Z,100140
2017-11-19T03:39:38.103Z,100140
2017-11-19T03:40:38.084Z,100143
2017-11-19T03:41:38.817Z,100140
2017-11-19T03:42:38.328Z,100141
2017-11-19T03:43:38.325Z,100145
2017-11-19T03:44:38.226Z,100141
2017-11-19T03:45:38.971Z,100141
2017-11-19T03:46:38.433Z,100140
2017-11-19T03:47:38.497Z,100138
2017-11-19T03:48:38.493Z,100136
2017-11-19T03:49:39.040Z,100138
2017-11-19T03:50:38.595Z,100136
2017-11-19T03:51:38.628Z,100135
2017-11-19T03:52:39.302Z,100131
2017-11-19T03:53:39.237Z,100134
2017-11-19T03:54:38.752Z,100134
2017-11-19T03:55:38.915Z,100129
2017-11-19T03:56:39.522Z,100137
2017-11-19T03:57:38.870Z,100135
2017-11-19T03:58:38.954Z,100140
2017-11-19T03:59:39.579Z,100148
2017-11-19T04:00:39.103Z,100148
2017-11-19T04:01:39.126Z,100143
2017-11-19T04:02:39.724Z,100145
2017-11-19T04:03:39.167Z,100137
2017-11-19T04:04:39.918Z,100144
2017-11-19T04:05:39.306Z,100145
2017-11-19T04:06:39.489Z,100147
2017-11-19T04:07:40.099Z,100148
2017-11-19T04:08:40.163Z,100152
2017-11-19T04:09:39.565Z,100148
2017-11-19T04:10:40.319Z,100148
2017-11-19T04:11:39.802Z,100147
2017-11-19T04:12:40.345Z,100144
2017-11-19T04:13:39.880Z,100151
2017-11-19T04:14:40.532Z,100150
2017-11-19T04:15:40.547Z,100153
2017-11-19T04:16:40.011Z,100154
2017-11-19T04:17:39.987Z,100156
2017-11-19T04:18:40.020Z,100148
2017-11-19T04:19:40.173Z,100150
2017-11-19T04:20:40.168Z,100155
2017-11-19T04:21:40.250Z,100156
2017-11-19T04:22:40.236Z,100156
2017-11-19T04:23:40.346Z,100151
2017-11-19T04:24:40.884Z,100147
2017-11-19T04:25:40.361Z,100153
2017-11-19T04:26:40.921Z,100158
2017-11-19T04:27:40.891Z,100153
2017-11-19T04:28:40.906Z,100154
2017-11-19T04:29:40.487Z,100154
2017-11-19T04:30:40.951Z,100153
2017-11-19T04:31:40.944Z,100153
2017-11-19T04:40:20.510Z,100143
2017-11-19T04:41:20.625Z,100141
2017-11-19T04:42:20.604Z,100143
2017-11-19T04:43:20.275Z,100146
2017-11-19T04:44:20.227Z,100145
2017-11-19T04:45:20.951Z,100148
2017-11-19T04:46:20.459Z,100150
2017-11-19T04:47:20.386Z,100143
2017-11-19T04:48:21.054Z,100143
2017-11-19T04:49:20.440Z,100145
2017-11-19T04:50:20.546Z,100145
2017-11-19T04:51:21.148Z,100142
2017-11-19T04:52:21.148Z,100148
2017-11-19T04:53:20.650Z,100153
2017-11-19T04:54:21.138Z,100152
2017-11-19T04:55:21.176Z,100152
2017-11-19T04:56:21.371Z,100154
2017-11-19T04:57:21.279Z,100151
2017-11-19T04:58:20.804Z,100139
2017-11-19T04:59:20.853Z,100150
2017-11-19T05:00:20.936Z,100153
2017-11-19T05:01:21.566Z,100152
2017-11-19T05:02:21.608Z,100153
2017-11-19T05:03:21.623Z,100161
2017-11-19T05:04:21.683Z,100162
2017-11-19T05:05:21.162Z,100167
2017-11-19T05:06:21.251Z,100170
2017-11-19T05:07:21.700Z,100171
2017-11-19T05:08:21.889Z,100170
2017-11-19T05:09:21.325Z,100165
2017-11-19T05:10:21.783Z,100168
2017-11-19T05:11:21.795Z,100170
2017-11-19T05:12:21.834Z,100171
2017-11-19T05:13:21.398Z,100171
2017-11-19T05:14:22.034Z,100169
2017-11-19T05:15:22.020Z,100163
2017-11-19T05:16:21.537Z,100166
2017-11-19T05:17:22.101Z,100167
2017-11-19T05:18:21.653Z,100171
2017-11-19T05:19:21.822Z,100166
2017-11-19T05:20:21.817Z,100166
2017-11-19T05:21:21.818Z,100165
2017-11-19T05:22:21.932Z,100168
2017-11-19T05:23:22.350Z,100171
2017-11-19T05:24:21.947Z,100167
2017-11-19T05:25:21.907Z,100174
2017-11-19T05:26:22.625Z,100174
2017-11-19T05:27:22.671Z,100168
2017-11-19T05:28:22.673Z,100171
2017-11-19T05:29:22.164Z,100174
2017-11-19T05:30:22.820Z,100173
2017-11-19T05:31:22.326Z,100174
2017-11-19T05:32:22.838Z,100183
2017-11-19T05:33:22.401Z,100182
2017-11-19T05:34:22.405Z,100185
2017-11-19T05:35:22.365Z,100185
2017-11-19T05:36:22.547Z,100189
2017-11-19T05:37:23.185Z,100192
2017-11-19T05:38:22.679Z,100187
2017-11-19T05:39:23.502Z,100195
2017-11-19T05:40:22.833Z,100196
2017-11-19T05:41:23.455Z,100196
2017-11-19T05:42:22.860Z,100199
2017-11-19T05:43:23.585Z,100204
2017-11-19T05:44:23.527Z,100205
2017-11-19T05:45:23.096Z,100197
2017-11-19T05:46:23.053Z,100193
2017-11-19T05:47:23.729Z,100202
2017-11-19T05:48:23.691Z,100201
2017-11-19T05:49:23.698Z,100193
2017-11-19T05:50:23.736Z,100196
2017-11-19T05:51:23.228Z,100194
2017-11-19T05:52:23.276Z,100202
2017-11-19T05:53:23.305Z,100191
2017-11-19T05:54:23.936Z,100192
2017-11-19T05:55:23.313Z,100187
2017-11-19T05:56:24.101Z,100191
2017-11-19T05:57:23.463Z,100194
2017-11-19T05:58:23.566Z,100189
2017-11-19T05:59:24.109Z,100188
2017-11-19T06:00:23.641Z,100182
2017-11-19T06:01:24.191Z,100186
2017-11-19T06:02:24.254Z,100185
2017-11-19T06:03:23.663Z,100190
2017-11-19T06:04:23.768Z,100191
2017-11-19T06:05:23.832Z,100191
2017-11-19T06:06:24.321Z,100192
2017-11-19T06:07:24.465Z,100194
2017-11-19T06:08:24.508Z,100197
2017-11-19T06:09:24.000Z,100198
2017-11-19T06:10:23.977Z,100196
2017-11-19T06:11:24.670Z,100194
2017-11-19T06:12:24.201Z,100192
2017-11-19T06:13:24.779Z,100194
2017-11-19T06:14:24.184Z,100197
2017-11-19T06:15:24.790Z,100195
2017-11-19T06:16:24.373Z,100201
2017-11-19T06:17:24.971Z,100206
2017-11-19T06:18:24.431Z,100203
2017-11-19T06:19:25.155Z,100209
2017-11-19T06:20:24.672Z,100209
2017-11-19T06:21:24.725Z,100211
2017-11-19T06:22:24.842Z,100213
2017-11-19T06:23:25.301Z,100212
2017-11-19T06:24:24.926Z,100208
2017-11-19T06:25:25.548Z,100208
2017-11-19T06:26:25.494Z,100209
2017-11-19T06:27:25.531Z,100208
2017-11-19T06:28:25.711Z,100213
2017-11-19T06:29:25.812Z,100207
2017-11-19T06:30:25.731Z,100214
2017-11-19T06:31:25.291Z,100217
2017-11-19T06:32:25.385Z,100215
2017-11-19T06:33:26.024Z,100220
2017-11-19T06:34:25.924Z,100222
2017-11-19T06:35:26.115Z,100219
2017-11-19T06:36:26.043Z,100218
2017-11-19T06:37:25.544Z,100222
2017-11-19T06:38:25.676Z,100223
2017-11-19T06:39:25.658Z,100217
2017-11-19T06:40:26.173Z,100221
2017-11-19T06:41:25.696Z,100217
2017-11-19T06:42:25.763Z,100219
2017-11-19T06:43:25.809Z,100218
2017-11-19T06:44:26.378Z,100216
2017-11-19T06:45:26.566Z,100216
2017-11-19T06:46:25.935Z,100208
2017-11-19T06:47:26.099Z,100211
2017-11-19T06:48:26.170Z,100209
2017-11-19T06:49:26.216Z,100209
2017-11-19T06:50:26.705Z,100206
2017-11-19T06:51:26.343Z,100210
2017-11-19T06:52:26.313Z,100214
2017-11-19T06:53:26.837Z,100218
2017-11-19T06:54:27.054Z,100216
2017-11-19T06:55:26.956Z,100221
2017-11-19T06:56:27.072Z,100227
2017-11-19T06:57:26.620Z,100227
2017-11-19T06:58:27.099Z,100220
2017-11-19T06:59:27.142Z,100225
2017-11-19T07:00:27.343Z,100228
2017-11-19T07:01:27.312Z,100232
2017-11-19T07:02:26.784Z,100233
2017-11-19T07:03:27.466Z,100227
2017-11-19T07:04:27.468Z,100233
2017-11-19T07:05:26.850Z,100239
2017-11-19T07:06:27.436Z,100233
2017-11-19T07:07:27.108Z,100236
2017-11-19T07:08:27.084Z,100237
2017-11-19T07:09:27.279Z,100241
2017-11-19T07:10:27.298Z,100236
2017-11-19T07:11:27.815Z,100234
2017-11-19T07:12:27.948Z,100241
2017-11-19T07:13:28.050Z,100241
2017-11-19T07:14:27.934Z,100240
2017-11-19T07:15:28.147Z,100238
2017-11-19T07:16:27.523Z,100238
2017-11-19T07:17:28.126Z,100238
2017-11-19T07:18:28.197Z,100241
2017-11-19T07:19:27.808Z,100236
2017-11-19T07:20:28.291Z,100241
2017-11-19T07:21:27.909Z,100241
2017-11-19T07:22:28.392Z,100236
2017-11-19T07:23:27.880Z,100240
2017-11-19T07:24:27.981Z,100237
2017-11-19T07:25:28.015Z,100238
2017-11-19T07:26:28.547Z,100235
2017-11-19T07:27:28.726Z,100230
2017-11-19T07:28:28.141Z,100232
2017-11-19T07:29:28.738Z,100233
2017-11-19T07:30:28.232Z,100236
2017-11-19T07:31:28.836Z,100236
2017-11-19T07:32:28.986Z,100238
2017-11-19T07:33:28.384Z,100240
2017-11-19T07:34:28.560Z,100237
2017-11-19T07:35:29.165Z,100243
2017-11-19T07:36:29.145Z,100237
2017-11-19T07:37:29.212Z,100238
2017-11-19T07:38:29.278Z,100231
2017-11-19T07:39:28.681Z,100239
2017-11-19T07:40:29.429Z,100241
2017-11-19T07:41:29.452Z,100246
2017-11-19T07:42:28.877Z,100244
2017-11-19T07:43:29.494Z,100243
2017-11-19T07:44:28.975Z,100240
2017-11-19T07:45:29.084Z,100242
2017-11-19T07:46:29.153Z,100244
2017-11-19T07:47:29.250Z,100237
2017-11-19T07:48:29.264Z,100240
2017-11-19T07:49:29.245Z,100238
2017-11-19T07:50:29.878Z,100238
2017-11-19T07:51:29.371Z,100237
2017-11-19T07:52:29.420Z,100238
2017-11-19T07:53:29.463Z,100235
2017-11-19T07:54:29.506Z,100239
2017-11-19T07:55:29.485Z,100238
2017-11-19T07:57:29.577Z,100248
2017-11-19T07:58:29.717Z,100243
2017-11-19T07:59:30.310Z,100245
2017-11-19T08:00:29.803Z,100250
2017-11-19T08:01:29.726Z,100245
2017-11-19T08:02:30.429Z,100245
2017-11-19T08:03:29.815Z,100246
2017-11-19T08:04:30.530Z,100249
2017-11-19T08:05:29.902Z,100258
2017-11-19T08:06:30.616Z,100253
2017-11-19T08:07:30.120Z,100249
2017-11-19T08:08:30.061Z,100252
2017-11-19T08:09:30.149Z,100255
2017-11-19T08:10:30.868Z,100251
2017-11-19T08:11:30.950Z,100253
2017-11-19T08:12:30.313Z,100259
2017-11-19T08:13:31.042Z,100263
2017-11-19T08:14:30.461Z,100262
2017-11-19T08:15:31.009Z,100263
2017-11-19T08:16:30.661Z,100267
2017-11-19T08:17:31.271Z,100270
2017-11-19T08:18:31.288Z,100267
2017-11-19T08:19:30.876Z,100272
2017-11-19T08:20:30.865Z,100269
2017-11-19T08:21:30.770Z,100272
2017-11-19T08:22:30.850Z,100271
2017-11-19T08:23:31.556Z,100272
2017-11-19T08:24:30.983Z,100271
2017-11-19T08:25:31.645Z,100278
2017-11-19T08:26:31.007Z,100280
2017-11-19T08:27:31.149Z,100283
2017-11-19T08:28:31.220Z,100283
2017-11-19T08:29:31.753Z,100283
2017-11-19T08:30:31.250Z,100281
2017-11-19T08:31:31.323Z,100284
2017-11-19T08:32:31.912Z,100285
2017-11-19T08:33:31.869Z,100288
2017-11-19T08:34:31.392Z,100287
2017-11-19T08:35:32.113Z,100290
2017-11-19T08:36:32.016Z,100286
2017-11-19T08:37:32.129Z,100289
2017-11-19T08:38:32.151Z,100293
2017-11-19T08:39:31.601Z,100293
2017-11-19T08:40:32.242Z,100295
2017-11-19T08:41:31.785Z,100287
2017-11-19T08:42:31.744Z,100292
2017-11-19T08:43:31.748Z,100289
2017-11-19T08:44:31.889Z,100290
2017-11-19T08:45:31.964Z,100290
2017-11-19T08:46:31.948Z,100287
2017-11-19T08:47:32.576Z,100293
2017-11-19T08:48:32.694Z,100296
2017-11-19T08:49:32.670Z,100300
2017-11-19T08:50:32.715Z,100301
2017-11-19T08:51:32.883Z,100300
2017-11-19T08:52:32.261Z,100296
2017-11-19T08:53:32.890Z,100301
2017-11-19T08:54:32.403Z,100298
2017-11-19T08:55:33.026Z,100300
2017-11-19T08:56:33.076Z,100294
2017-11-19T08:57:32.482Z,100296
2017-11-19T08:58:32.575Z,100296
2017-11-19T08:59:32.586Z,100296
2017-11-19T09:00:32.601Z,100300
2017-11-19T09:01:33.180Z,100303
2017-11-19T09:02:33.299Z,100303
2017-11-19T09:03:33.256Z,100299
2017-11-19T09:04:32.918Z,100302
2017-11-19T09:05:33.433Z,100306
2017-11-19T09:06:33.444Z,100299
2017-11-19T09:07:33.442Z,100298
2017-11-19T09:08:33.513Z,100298
2017-11-19T09:09:33.698Z,100297
2017-11-19T09:10:33.820Z,100298
2017-11-19T09:11:33.753Z,100297
2017-11-19T09:12:33.271Z,100293
2017-11-19T09:13:33.401Z,100291
2017-11-19T09:14:33.473Z,100288
2017-11-19T09:15:34.089Z,100281
2017-11-19T09:16:33.528Z,100282
2017-11-19T09:17:34.126Z,100296
2017-11-19T09:18:34.298Z,100299
2017-11-19T09:19:33.848Z,100301
2017-11-19T09:20:33.758Z,100301
2017-11-19T09:21:34.386Z,100305
2017-11-19T09:22:34.418Z,100312
2017-11-19T09:23:33.895Z,100308
2017-11-19T09:24:33.973Z,100300
2017-11-19T09:25:34.498Z,100300
2017-11-19T09:26:34.567Z,100304
2017-11-19T09:27:34.078Z,100307
2017-11-19T09:28:34.766Z,100304
2017-11-19T09:29:34.234Z,100304
2017-11-19T09:30:34.314Z,100308
2017-11-19T09:31:34.796Z,100314
2017-11-19T09:32:34.318Z,100320
2017-11-19T09:33:34.923Z,100320
2017-11-19T09:34:34.452Z,100317
2017-11-19T09:35:34.536Z,100321
2017-11-19T09:36:35.174Z,100325
2017-11-19T09:37:34.583Z,100329
2017-11-19T09:38:34.582Z,100324
2017-11-19T09:39:34.677Z,100320
2017-11-19T09:40:35.254Z,100319
2017-11-19T09:41:34.819Z,100321
2017-11-19T09:42:35.554Z,100314
2017-11-19T09:43:35.045Z,100316
2017-11-19T09:44:35.649Z,100320
2017-11-19T09:45:35.093Z,100317
2017-11-19T09:46:35.718Z,100312
2017-11-19T09:47:35.735Z,100318
2017-11-19T09:48:35.778Z,100322
2017-11-19T09:49:35.343Z,100320
2017-11-19T09:50:35.413Z,100314
2017-11-19T09:51:35.901Z,100318
2017-11-19T09:52:35.402Z,100319
2017-11-19T09:53:35.451Z,100319
2017-11-19T09:54:35.598Z,100311
2017-11-19T09:55:35.662Z,100322
2017-11-19T09:56:35.629Z,100314
2017-11-19T09:57:36.190Z,100313
2017-11-19T09:58:36.346Z,100320
2017-11-19T09:59:35.807Z,100324
2017-11-19T10:00:35.915Z,100317
2017-11-19T10:01:35.933Z,100319
2017-11-19T10:02:35.982Z,100323
2017-11-19T10:03:36.549Z,100327
2017-11-19T10:04:36.056Z,100327
2017-11-19T10:05:36.709Z,100331
2017-11-19T10:06:36.182Z,100328
2017-11-19T10:07:36.150Z,100325
2017-11-19T10:08:36.228Z,100333
2017-11-19T10:09:36.955Z,100335
2017-11-19T10:10:36.990Z,100337
2017-11-19T10:11:36.396Z,100333
2017-11-19T10:12:36.567Z,100327
2017-11-19T10:13:37.093Z,100325
2017-11-19T10:14:36.570Z,100326
2017-11-19T10:15:36.615Z,100326
2017-11-19T10:16:37.323Z,100329
2017-11-19T10:17:37.228Z,100330
2017-11-19T10:18:37.355Z,100322
2017-11-19T10:19:37.387Z,100328
2017-11-19T10:20:37.440Z,100329
2017-11-19T10:21:36.844Z,100324
2017-11-19T10:22:36.960Z,100327
2017-11-19T10:23:37.393Z,100325
2017-11-19T10:24:37.460Z,100329
2017-11-19T10:25:37.547Z,100322
2017-11-19T10:26:37.096Z,100323
2017-11-19T10:27:37.696Z,100329
2017-11-19T10:28:37.204Z,100323
2017-11-19T10:29:37.277Z,100321
2017-11-19T10:30:37.378Z,100316
2017-11-19T10:31:37.343Z,100325
2017-11-19T10:32:37.410Z,100319
2017-11-19T10:33:38.024Z,100317
2017-11-19T10:34:38.188Z,100321
2017-11-19T10:35:37.667Z,100315
2017-11-19T10:36:37.774Z,100314
2017-11-19T10:37:37.655Z,100323
2017-11-19T10:38:38.325Z,100317
2017-11-19T10:39:37.887Z,100315
2017-11-19T10:40:38.316Z,100321
2017-11-19T10:41:37.941Z,100317
2017-11-19T10:42:37.904Z,100321
2017-11-19T10:43:38.068Z,100323
2017-11-19T10:44:38.529Z,100322
2017-11-19T10:45:38.180Z,100323
2017-11-19T10:46:38.182Z,100327
2017-11-19T10:47:38.278Z,100323
2017-11-19T10:48:38.286Z,100320
2017-11-19T10:49:38.424Z,100314
2017-11-19T10:50:38.940Z,100322
2017-11-19T10:51:39.079Z,100320
2017-11-19T10:52:38.545Z,100325
2017-11-19T10:53:39.048Z,100313
2017-11-19T10:54:38.660Z,100315
2017-11-19T10:55:38.717Z,100328
2017-11-19T10:56:39.312Z,100317
2017-11-19T10:57:38.784Z,100325
2017-11-19T10:58:39.289Z,100322
2017-11-19T10:59:39.389Z,100323
2017-11-19T11:00:38.956Z,100317
2017-11-19T11:01:39.143Z,100320
2017-11-19T11:02:39.701Z,100325
2017-11-19T11:03:39.736Z,100329
2017-11-19T11:04:39.767Z,100326
2017-11-19T11:05:39.731Z,100325
2017-11-19T11:06:39.869Z,100334
2017-11-19T11:07:39.847Z,100332
2017-11-19T11:08:39.935Z,100327
2017-11-19T11:09:40.064Z,100335
2017-11-19T11:10:39.483Z,100324
2017-11-19T11:11:40.160Z,100325
2017-11-19T11:12:39.620Z,100330
2017-11-19T11:13:40.252Z,100323
2017-11-19T11:14:40.245Z,100329
2017-11-19T11:15:39.725Z,100324
2017-11-19T11:16:40.265Z,100333
2017-11-19T11:17:39.755Z,100332
2017-11-19T11:18:39.868Z,100339
2017-11-19T11:19:40.511Z,100335
2017-11-19T11:20:39.896Z,100340
2017-11-19T11:21:40.042Z,100335
2017-11-19T11:22:40.618Z,100342
2017-11-19T11:23:40.492Z,100340
2017-11-19T11:24:40.096Z,100343
2017-11-19T11:25:40.561Z,100339
2017-11-19T11:26:40.134Z,100338
2017-11-19T11:27:40.748Z,100335
2017-11-19T11:28:40.278Z,100345
2017-11-19T11:29:40.184Z,100340
2017-11-19T11:30:40.844Z,100343
2017-11-19T11:31:40.326Z,100349
2017-11-19T11:32:40.333Z,100353
2017-11-19T11:33:40.872Z,100353
2017-11-19T11:34:40.904Z,100350
2017-11-19T11:35:41.088Z,100349
2017-11-19T11:36:40.528Z,100348
2017-11-19T11:37:41.107Z,100354
2017-11-19T11:38:40.771Z,100348
2017-11-19T11:39:40.780Z,100345
2017-11-19T11:40:41.344Z,100342
2017-11-19T11:41:41.237Z,100343
2017-11-19T11:42:40.716Z,100349
2017-11-19T11:43:40.805Z,100346
2017-11-19T11:44:41.486Z,100343
2017-11-19T11:45:40.892Z,100346
2017-11-19T11:46:41.523Z,100350
2017-11-19T11:47:41.616Z,100347
2017-11-19T11:48:41.080Z,100337
2017-11-19T11:49:41.671Z,100343
2017-11-19T11:50:41.184Z,100339
2017-11-19T11:51:41.285Z,100342
2017-11-19T11:52:41.274Z,100337
2017-11-19T11:53:41.346Z,100340
2017-11-19T11:54:41.269Z,100339
2017-11-19T11:55:41.304Z,100341
2017-11-19T11:56:41.331Z,100342
2017-11-19T11:57:41.997Z,100340
2017-11-19T11:58:41.978Z,100339
2017-11-19T11:59:41.998Z,100341
2017-11-19T12:00:42.185Z,100332
2017-11-19T12:01:41.490Z,100339
2017-11-19T12:02:41.571Z,100336
2017-11-19T12:03:42.168Z,100340
2017-11-19T12:04:41.634Z,100340
2017-11-19T12:05:41.737Z,100340
2017-11-19T12:06:42.370Z,100340
2017-11-19T12:07:41.738Z,100342
2017-11-19T12:08:42.386Z,100340
2017-11-19T12:09:41.972Z,100335
2017-11-19T12:10:42.564Z,100342
2017-11-19T12:11:42.622Z,100337
2017-11-19T12:12:42.681Z,100341
2017-11-19T12:13:42.217Z,100345
2017-11-19T12:14:42.769Z,100347
2017-11-19T12:15:42.178Z,100346
2017-11-19T12:16:42.813Z,100346
2017-11-19T12:17:42.709Z,100343
2017-11-19T12:18:42.774Z,100346
2017-11-19T12:19:43.000Z,100350
2017-11-19T12:20:42.397Z,100353
2017-11-19T12:21:42.910Z,100346
2017-11-19T12:22:42.465Z,100343
2017-11-19T12:23:42.567Z,100346
2017-11-19T12:24:42.667Z,100346
2017-11-19T12:25:42.634Z,100346
2017-11-19T12:26:43.266Z,100344
2017-11-19T12:27:43.465Z,100339
2017-11-19T12:28:43.491Z,100345
2017-11-19T12:29:43.429Z,100347
2017-11-19T12:30:42.964Z,100346
2017-11-19T12:31:43.654Z,100342
2017-11-19T12:32:43.029Z,100344
2017-11-19T12:33:43.762Z,100341
2017-11-19T12:34:43.247Z,100345
2017-11-19T12:35:43.767Z,100345
2017-11-19T12:36:43.961Z,100347
2017-11-19T12:37:43.427Z,100347